Azalea, Oregon
Current Conditions -  °F | °C
As of 6:14 PM on Wednesday 17 Dec 2014 (Local Time) from KSXT Reporting Station
Haze Haze  
Wind Chill: 27°   Ceiling: 3100
Heat Index: 35°   Visibility: 3mi
Dew Point: 35°   Wind: 10mph
Humidity: 100%   Direction: 160°SSE
Pressure: 29.9"   Gusts: NA
Location:  42.8°N, 123.26°W
Report Text: KSXT 180214Z AUTO 16009KT 3SM BR FEW015 OVC031 02/02 A2990 RMK AO2 UPE04 P0000 T00170017
Loading
Personal Weather Stations






























Interactive Weather Map New forecast layout! Learn more

10-Day Weather Forecast

Advertisements
Track Severe Weather on mobile